Time;durP1;ratioP1;P1;durP2;ratioP2;P2;SDS_P1;SDS_P2;PMS_P1;PMS_P2;Temp;Humidity;BMP_temperature;BMP_pressure;BME280_temperature;BME280_humidity;BME280_pressure;Samples;Min_cycle;Max_cycle;Signal;HPM_P1;HPM_P2
2022/11/20 00:01:24;;;;;;;45.20;37.38;;;;;;;;;;5079149;28;20024;-72
2022/11/20 00:03:49;;;;;;;;;;;;;;;;;;5081706;28;20051;-71
2022/11/20 00:06:16;;;;;;;35.33;29.57;;;;;;;;;;5078933;28;19911;-71
2022/11/20 00:08:42;;;;;;;31.23;25.15;;;;;;;;;;5069447;28;20028;-71
2022/11/20 00:11:10;;;;;;;23.45;18.25;;;;;;;;;;5079676;28;20035;-71
2022/11/20 00:13:35;;;;;;;10.15;7.32;;;;;;;;;;5081660;28;20023;-71
2022/11/20 00:16:01;;;;;;;9.90;8.90;;;;;;;;;;5078221;28;20369;-72
2022/11/20 00:18:27;;;;;;;6.05;5.32;;;;;;;;;;5079671;28;20490;-72
2022/11/20 00:20:53;;;;;;;6.50;5.82;;;;;;;;;;5080202;28;20043;-72
2022/11/20 00:23:18;;;;;;;7.55;6.32;;;;;;;;;;5073676;28;20027;-71
2022/11/20 00:25:43;;;;;;;42.13;23.05;;;;;;;;;;5072921;28;20024;-72
2022/11/20 00:28:09;;;;;;;32.42;19.08;;;;;;;;;;5079010;28;20451;-70
2022/11/20 00:30:34;;;;;;;41.00;24.00;;;;;;;;;;5068552;28;20481;-71
2022/11/20 00:32:59;;;;;;;71.35;38.53;;;;;;;;;;5079440;28;20036;-71
2022/11/20 00:35:25;;;;;;;38.42;27.40;;;;;;;;;;5078932;28;20048;-71
2022/11/20 00:37:50;;;;;;;25.00;20.23;;;;;;;;;;5078428;28;20700;-71
2022/11/20 00:40:15;;;;;;;23.63;20.40;;;;;;;;;;5078310;28;20046;-72
2022/11/20 00:42:41;;;;;;;22.08;18.58;;;;;;;;;;5075173;28;20039;-71
2022/11/20 00:45:06;;;;;;;15.23;13.73;;;;;;;;;;5075730;28;20745;-70
2022/11/20 00:47:32;;;;;;;14.77;13.27;;;;;;;;;;5077005;28;20032;-71
2022/11/20 00:49:57;;;;;;;12.43;11.23;;;;;;;;;;5078318;28;20032;-71
2022/11/20 00:52:22;;;;;;;12.05;10.82;;;;;;;;;;5078855;28;20028;-72
2022/11/20 00:54:48;;;;;;;13.80;11.95;;;;;;;;;;5053224;28;20167;-71
2022/11/20 00:57:13;;;;;;;10.52;9.52;;;;;;;;;;5079826;28;20111;-71
2022/11/20 00:59:38;;;;;;;10.45;9.02;;;;;;;;;;5068675;28;20024;-72
2022/11/20 01:02:04;;;;;;;8.52;7.72;;;;;;;;;;5078450;28;20039;-72
2022/11/20 01:04:29;;;;;;;8.43;7.63;;;;;;;;;;5077347;28;20137;-71
2022/11/20 01:06:54;;;;;;;12.20;11.00;;;;;;;;;;5077590;28;20020;-71
2022/11/20 01:09:20;;;;;;;10.75;9.65;;;;;;;;;;5078772;28;20088;-71
2022/11/20 01:11:45;;;;;;;18.08;16.10;;;;;;;;;;5078416;28;20059;-71
2022/11/20 01:14:12;;;;;;;23.35;20.15;;;;;;;;;;5068255;28;20036;-72
2022/11/20 01:16:39;;;;;;;21.88;18.85;;;;;;;;;;5071071;28;20130;-72
2022/11/20 01:19:06;;;;;;;19.27;17.27;;;;;;;;;;5066989;28;20494;-72
2022/11/20 01:21:32;;;;;;;10.65;9.55;;;;;;;;;;5058162;28;20126;-72
2022/11/20 01:23:58;;;;;;;6.82;6.10;;;;;;;;;;5056196;28;20043;-71
2022/11/20 01:26:25;;;;;;;8.13;7.43;;;;;;;;;;5058408;28;20028;-71
2022/11/20 01:28:50;;;;;;;9.43;8.52;;;;;;;;;;5057613;28;20055;-72
2022/11/20 01:31:21;;;;;;;8.02;7.22;;;;;;;;;;5053022;28;20633;-72
2022/11/20 01:33:47;;;;;;;6.93;6.22;;;;;;;;;;5053145;28;20024;-72
2022/11/20 01:36:12;;;;;;;5.93;5.32;;;;;;;;;;5056783;28;20028;-72
2022/11/20 01:38:38;;;;;;;5.88;5.38;;;;;;;;;;5050247;28;20077;-72
2022/11/20 01:41:04;;;;;;;6.00;5.40;;;;;;;;;;5057902;28;20028;-71
2022/11/20 01:43:29;;;;;;;4.50;4.10;;;;;;;;;;5051668;28;20028;-72
2022/11/20 01:46:03;;;;;;;4.18;3.50;;;;;;;;;;5054953;28;20025;-71
2022/11/20 01:48:35;;;;;;;4.90;4.10;;;;;;;;;;5050091;28;20149;-72
2022/11/20 01:51:02;;;;;;;6.50;5.70;;;;;;;;;;5056988;28;20020;-71
2022/11/20 01:53:30;;;;;;;10.07;8.88;;;;;;;;;;5058187;28;20039;-72
2022/11/20 01:55:56;;;;;;;10.68;9.57;;;;;;;;;;5057458;28;20024;-71
2022/11/20 01:58:24;;;;;;;7.53;6.82;;;;;;;;;;5053434;28;20028;-72
2022/11/20 02:00:50;;;;;;;6.25;5.70;;;;;;;;;;5053755;28;20093;-72
2022/11/20 02:03:16;;;;;;;11.32;7.82;;;;;;;;;;5049118;28;20021;-71
2022/11/20 02:05:47;;;;;;;13.20;10.93;;;;;;;;;;5057525;28;20095;-71
2022/11/20 02:08:13;;;;;;;6.40;4.38;;;;;;;;;;5056972;28;20490;-72
2022/11/20 02:10:38;;;;;;;11.77;8.35;;;;;;;;;;5053742;28;20079;-72
2022/11/20 02:15:48;;;;;;;25.23;18.02;;;;;;;;;;5055107;28;20098;-72
2022/11/20 02:18:15;;;;;;;25.90;19.98;;;;;;;;;;5061775;28;20402;-72
2022/11/20 02:20:45;;;;;;;6.25;5.65;;;;;;;;;;5067703;28;20145;-71
2022/11/20 02:23:12;;;;;;;11.05;9.45;;;;;;;;;;5061775;28;20359;-71
2022/11/20 02:25:39;;;;;;;17.63;15.40;;;;;;;;;;5074749;28;20020;-71
2022/11/20 02:28:04;;;;;;;20.00;15.73;;;;;;;;;;5077659;28;20028;-72
2022/11/20 02:30:30;;;;;;;14.80;12.70;;;;;;;;;;5078891;28;20034;-71
2022/11/20 02:32:55;;;;;;;10.90;9.75;;;;;;;;;;5080490;28;20055;-71
2022/11/20 02:35:20;;;;;;;7.93;7.13;;;;;;;;;;5077250;28;20051;-72
2022/11/20 02:37:50;;;;;;;7.57;5.90;;;;;;;;;;5074027;28;20035;-71
2022/11/20 02:40:15;;;;;;;;;;;;;;;;;;5074166;28;20045;-72
2022/11/20 02:42:41;;;;;;;5.30;4.47;;;;;;;;;;5071498;28;19938;-72
2022/11/20 02:45:07;;;;;;;4.95;4.03;;;;;;;;;;5078548;28;20024;-72
2022/11/20 02:47:32;;;;;;;4.72;4.32;;;;;;;;;;5075883;28;20036;-72
2022/11/20 02:49:58;;;;;;;44.33;30.50;;;;;;;;;;5073292;28;20040;-72
2022/11/20 02:52:24;;;;;;;36.17;25.20;;;;;;;;;;5072183;28;20380;-73
2022/11/20 02:54:49;;;;;;;28.00;21.40;;;;;;;;;;5080275;28;20086;-72
2022/11/20 02:57:14;;;;;;;15.65;12.27;;;;;;;;;;5077778;28;20015;-72
2022/11/20 02:59:40;;;;;;;15.27;10.50;;;;;;;;;;5080887;28;20043;-72
2022/11/20 03:02:05;;;;;;;11.27;9.55;;;;;;;;;;5070598;28;20451;-72
2022/11/20 03:04:31;;;;;;;10.55;8.93;;;;;;;;;;5079982;28;20660;-72
2022/11/20 03:06:56;;;;;;;12.07;9.55;;;;;;;;;;5080165;28;20030;-72
2022/11/20 03:09:21;;;;;;;12.00;8.57;;;;;;;;;;5072547;28;20023;-72
2022/11/20 03:11:47;;;;;;;13.45;8.45;;;;;;;;;;5079950;28;20024;-72
2022/11/20 03:14:12;;;;;;;37.90;23.60;;;;;;;;;;5080780;28;20035;-72
2022/11/20 03:16:38;;;;;;;16.90;11.93;;;;;;;;;;5079246;28;20035;-72
2022/11/20 03:19:03;;;;;;;19.75;13.02;;;;;;;;;;5078848;28;20048;-72
2022/11/20 03:21:29;;;;;;;14.82;11.55;;;;;;;;;;5081255;28;20024;-72
2022/11/20 03:23:54;;;;;;;6.68;5.70;;;;;;;;;;5076675;28;20554;-72
2022/11/20 03:26:24;;;;;;;10.35;7.68;;;;;;;;;;5071000;28;20409;-72
2022/11/20 03:28:49;;;;;;;;;;;;;;;;;;5082011;28;20065;-73
2022/11/20 03:31:15;;;;;;;6.83;6.03;;;;;;;;;;5082157;28;20339;-72
2022/11/20 03:33:41;;;;;;;5.35;4.80;;;;;;;;;;5077569;28;20024;-72
2022/11/20 03:36:08;;;;;;;4.65;4.07;;;;;;;;;;5080500;28;20024;-72
2022/11/20 03:38:34;;;;;;;6.07;4.60;;;;;;;;;;5081219;28;20105;-72
2022/11/20 03:41:00;;;;;;;4.75;4.10;;;;;;;;;;5077606;28;20455;-72
2022/11/20 03:43:26;;;;;;;3.78;2.80;;;;;;;;;;5074186;28;20040;-72
2022/11/20 03:45:51;;;;;;;10.57;8.35;;;;;;;;;;5081797;28;20340;-72
2022/11/20 03:48:16;;;;;;;9.15;5.43;;;;;;;;;;5071978;28;20024;-72
2022/11/20 03:50:42;;;;;;;13.73;12.13;;;;;;;;;;5079873;28;20051;-72
2022/11/20 03:53:07;;;;;;;10.13;8.48;;;;;;;;;;5081470;28;20071;-72
2022/11/20 03:55:32;;;;;;;12.70;9.57;;;;;;;;;;5080616;28;20039;-72
2022/11/20 03:57:58;;;;;;;17.98;13.43;;;;;;;;;;5070422;28;20548;-72
2022/11/20 04:00:23;;;;;;;14.13;11.15;;;;;;;;;;5077914;28;20039;-72
2022/11/20 04:02:48;;;;;;;13.15;10.02;;;;;;;;;;5080621;28;20111;-72
2022/11/20 04:05:14;;;;;;;15.95;13.15;;;;;;;;;;5077527;28;20020;-72
2022/11/20 04:07:39;;;;;;;10.70;8.75;;;;;;;;;;5080230;28;20028;-72
2022/11/20 04:10:05;;;;;;;11.43;10.23;;;;;;;;;;5079548;28;20023;-72
2022/11/20 04:12:33;;;;;;;15.35;12.38;;;;;;;;;;5079772;28;20028;-72
2022/11/20 04:14:58;;;;;;;12.05;10.00;;;;;;;;;;5078298;28;20020;-72
2022/11/20 04:17:24;;;;;;;4.30;3.78;;;;;;;;;;5069183;28;20034;-73
2022/11/20 04:19:49;;;;;;;12.45;8.32;;;;;;;;;;5069048;28;20059;-72
2022/11/20 04:22:15;;;;;;;13.32;11.02;;;;;;;;;;5069827;28;20059;-72
2022/11/20 04:24:40;;;;;;;12.43;9.35;;;;;;;;;;5070178;28;20111;-73
2022/11/20 04:27:05;;;;;;;8.75;7.85;;;;;;;;;;5075702;28;20065;-72
2022/11/20 04:29:31;;;;;;;5.80;5.22;;;;;;;;;;5079237;28;20039;-72
2022/11/20 04:31:56;;;;;;;9.13;8.15;;;;;;;;;;5080335;28;20040;-72
2022/11/20 04:34:21;;;;;;;6.00;4.85;;;;;;;;;;5079366;28;20024;-72
2022/11/20 04:36:47;;;;;;;6.57;5.35;;;;;;;;;;5078807;28;20023;-72
2022/11/20 04:39:14;;;;;;;11.75;9.98;;;;;;;;;;5078459;28;20032;-72
2022/11/20 04:41:39;;;;;;;16.67;15.00;;;;;;;;;;5078689;28;20020;-72
2022/11/20 04:44:05;;;;;;;11.93;10.80;;;;;;;;;;5068476;28;20039;-72
2022/11/20 04:46:32;;;;;;;8.70;7.88;;;;;;;;;;5069341;28;20043;-72
2022/11/20 04:48:58;;;;;;;21.67;18.27;;;;;;;;;;5066504;28;20032;-72
2022/11/20 04:51:24;;;;;;;16.30;12.00;;;;;;;;;;5066512;28;20027;-72
2022/11/20 04:53:49;;;;;;;42.50;38.38;;;;;;;;;;5067734;28;20054;-72
2022/11/20 04:56:14;;;;;;;22.10;19.70;;;;;;;;;;5066742;28;20466;-72
2022/11/20 04:58:40;;;;;;;16.52;13.30;;;;;;;;;;5067175;28;20350;-72
2022/11/20 05:01:16;;;;;;;13.98;12.45;;;;;;;;;;5067648;28;20028;-72
2022/11/20 05:03:42;;;;;;;15.07;12.98;;;;;;;;;;5069268;28;20020;-72
2022/11/20 05:06:07;;;;;;;14.65;13.07;;;;;;;;;;5068899;28;20020;-72
2022/11/20 05:08:33;;;;;;;11.13;9.25;;;;;;;;;;5065970;28;20059;-72
2022/11/20 05:11:09;;;;;;;12.65;11.13;;;;;;;;;;5067579;28;20074;-72
2022/11/20 05:13:35;;;;;;;10.23;9.00;;;;;;;;;;5069090;28;20029;-72
2022/11/20 05:16:01;;;;;;;9.10;8.23;;;;;;;;;;5068482;28;20437;-72
2022/11/20 05:18:26;;;;;;;8.63;7.72;;;;;;;;;;5068056;28;20050;-72
2022/11/20 05:20:55;;;;;;;9.00;6.88;;;;;;;;;;5067993;28;20436;-72
2022/11/20 05:23:20;;;;;;;5.05;4.47;;;;;;;;;;5068015;28;20028;-72
2022/11/20 05:25:46;;;;;;;4.80;4.20;;;;;;;;;;5068914;28;20724;-72
2022/11/20 05:28:11;;;;;;;3.85;2.92;;;;;;;;;;5068733;28;21197;-72
2022/11/20 05:30:36;;;;;;;15.32;11.93;;;;;;;;;;5068784;28;20132;-73
2022/11/20 05:33:02;;;;;;;26.08;17.77;;;;;;;;;;5069097;28;20055;-72
2022/11/20 05:35:27;;;;;;;27.50;23.50;;;;;;;;;;5079007;28;20032;-72
2022/11/20 05:37:52;;;;;;;27.08;22.88;;;;;;;;;;5070477;28;20020;-73
2022/11/20 05:40:18;;;;;;;20.48;18.27;;;;;;;;;;5074841;28;20036;-72
2022/11/20 05:42:43;;;;;;;20.27;18.08;;;;;;;;;;5069884;28;20468;-72
2022/11/20 05:45:09;;;;;;;10.85;9.48;;;;;;;;;;5077504;28;20426;-72
2022/11/20 05:47:35;;;;;;;5.38;4.28;;;;;;;;;;5074990;28;20023;-72
2022/11/20 05:50:00;;;;;;;9.02;7.38;;;;;;;;;;5071676;28;20035;-71
2022/11/20 05:52:29;;;;;;;10.57;8.50;;;;;;;;;;5073064;28;20028;-71
2022/11/20 05:54:54;;;;;;;29.65;21.35;;;;;;;;;;5072884;28;20080;-72
2022/11/20 05:57:19;;;;;;;21.90;15.48;;;;;;;;;;5076995;28;20028;-71
2022/11/20 05:59:45;;;;;;;15.70;12.05;;;;;;;;;;5077207;28;20375;-72
2022/11/20 06:02:10;;;;;;;28.15;21.10;;;;;;;;;;5070934;28;20371;-71
2022/11/20 06:04:36;;;;;;;49.45;38.08;;;;;;;;;;5071613;28;20058;-72
2022/11/20 06:07:01;;;;;;;33.03;27.48;;;;;;;;;;5077260;28;20031;-71
2022/11/20 06:09:26;;;;;;;21.58;19.25;;;;;;;;;;5069861;28;20029;-71
2022/11/20 06:11:52;;;;;;;15.27;13.77;;;;;;;;;;5076551;28;20800;-72
2022/11/20 06:14:17;;;;;;;8.75;7.95;;;;;;;;;;5069578;28;20335;-71
2022/11/20 06:16:42;;;;;;;17.40;15.63;;;;;;;;;;5077331;28;20024;-71
2022/11/20 06:19:08;;;;;;;22.23;19.38;;;;;;;;;;5070398;28;20071;-71
2022/11/20 06:21:33;;;;;;;17.77;15.95;;;;;;;;;;5069487;28;20020;-71
2022/11/20 06:23:58;;;;;;;21.15;18.95;;;;;;;;;;5070502;28;20951;-74
2022/11/20 06:26:25;;;;;;;12.23;10.82;;;;;;;;;;5079704;28;20036;-74
2022/11/20 06:28:51;;;;;;;21.88;18.23;;;;;;;;;;5078310;28;20035;-74
2022/11/20 06:31:18;;;;;;;23.65;18.02;;;;;;;;;;5074850;28;20359;-75
2022/11/20 06:33:43;;;;;;;17.13;14.13;;;;;;;;;;5076720;28;20420;-73
2022/11/20 06:36:09;;;;;;;19.83;16.23;;;;;;;;;;5069045;28;20042;-73
2022/11/20 06:38:35;;;;;;;17.58;14.40;;;;;;;;;;5079296;28;20035;-73
2022/11/20 06:41:00;;;;;;;17.60;15.23;;;;;;;;;;5077241;28;20020;-73
2022/11/20 06:43:26;;;;;;;18.05;15.10;;;;;;;;;;5071845;28;20038;-73
2022/11/20 06:45:52;;;;;;;36.25;24.15;;;;;;;;;;5076559;28;20024;-73
2022/11/20 06:48:18;;;;;;;35.78;27.00;;;;;;;;;;5077719;28;20048;-73
2022/11/20 06:50:43;;;;;;;448.30;224.68;;;;;;;;;;5075816;28;20951;-73
2022/11/20 06:53:08;;;;;;;39.65;27.05;;;;;;;;;;5069317;28;20028;-75
2022/11/20 06:55:34;;;;;;;21.90;18.30;;;;;;;;;;5076058;28;20028;-75
2022/11/20 06:57:59;;;;;;;16.48;12.68;;;;;;;;;;5066127;28;20024;-75
2022/11/20 07:00:24;;;;;;;23.30;17.83;;;;;;;;;;5075352;28;20040;-75
2022/11/20 07:02:50;;;;;;;49.47;37.45;;;;;;;;;;5081069;28;20054;-76
2022/11/20 07:05:16;;;;;;;41.10;33.40;;;;;;;;;;5079693;28;20058;-72
2022/11/20 07:07:41;;;;;;;56.67;42.08;;;;;;;;;;5069140;28;20028;-73
2022/11/20 07:10:07;;;;;;;53.72;43.33;;;;;;;;;;5074413;28;20032;-73
2022/11/20 07:12:32;;;;;;;45.17;37.38;;;;;;;;;;5078353;28;20032;-72
2022/11/20 07:14:57;;;;;;;52.55;37.25;;;;;;;;;;5068051;28;20411;-72
2022/11/20 07:17:23;;;;;;;61.28;45.15;;;;;;;;;;5071250;28;20696;-73
2022/11/20 07:19:48;;;;;;;45.40;34.55;;;;;;;;;;5058155;28;20109;-72
2022/11/20 07:22:13;;;;;;;203.98;118.25;;;;;;;;;;5079550;28;20061;-72
2022/11/20 07:24:39;;;;;;;221.32;131.80;;;;;;;;;;5082114;28;20103;-72
2022/11/20 07:27:04;;;;;;;170.20;124.20;;;;;;;;;;5075036;28;20450;-72
2022/11/20 07:29:30;;;;;;;96.07;77.45;;;;;;;;;;5068452;28;20036;-71
2022/11/20 07:31:56;;;;;;;41.22;36.92;;;;;;;;;;5074757;28;20028;-71
2022/11/20 07:34:21;;;;;;;28.63;25.70;;;;;;;;;;5076171;28;20449;-72
2022/11/20 07:36:47;;;;;;;21.45;19.35;;;;;;;;;;5076131;28;20032;-71
2022/11/20 07:39:12;;;;;;;24.35;21.83;;;;;;;;;;5071102;28;20032;-71
2022/11/20 07:41:37;;;;;;;89.78;79.95;;;;;;;;;;5080092;28;20425;-71
2022/11/20 07:44:03;;;;;;;117.03;95.88;;;;;;;;;;5079991;28;20086;-71
2022/11/20 07:46:28;;;;;;;85.35;68.28;;;;;;;;;;5070895;28;20032;-72
2022/11/20 07:48:54;;;;;;;146.02;112.85;;;;;;;;;;5076372;28;20028;-72
2022/11/20 07:51:19;;;;;;;123.35;101.28;;;;;;;;;;5069109;28;20024;-72
2022/11/20 07:53:44;;;;;;;68.90;57.50;;;;;;;;;;5068315;28;20150;-71
2022/11/20 07:56:10;;;;;;;65.97;52.08;;;;;;;;;;5068146;28;20677;-72
2022/11/20 07:58:35;;;;;;;214.13;147.00;;;;;;;;;;5066826;28;21329;-72
2022/11/20 08:01:04;;;;;;;263.98;183.32;;;;;;;;;;5068586;28;20089;-71
2022/11/20 08:03:29;;;;;;;302.25;217.60;;;;;;;;;;5070980;28;20450;-72
2022/11/20 08:05:58;;;;;;;135.27;96.18;;;;;;;;;;5080674;28;20055;-73
2022/11/20 08:08:23;;;;;;;62.80;48.40;;;;;;;;;;5078381;28;20409;-74
2022/11/20 08:10:48;;;;;;;66.10;55.67;;;;;;;;;;5076618;28;20122;-71
2022/11/20 08:15:57;;;;;;;38.00;31.92;;;;;;;;;;5070867;28;20046;-71
2022/11/20 08:18:23;;;;;;;36.60;32.80;;;;;;;;;;5072790;28;20139;-71
2022/11/20 08:20:48;;;;;;;38.63;33.25;;;;;;;;;;5078355;28;20120;-71
2022/11/20 08:23:14;;;;;;;25.15;22.60;;;;;;;;;;5077864;28;20513;-71
2022/11/20 08:25:39;;;;;;;35.58;31.80;;;;;;;;;;5070353;28;20479;-71
2022/11/20 08:28:06;;;;;;;36.05;32.45;;;;;;;;;;5077396;28;20371;-71
2022/11/20 08:30:32;;;;;;;40.15;35.95;;;;;;;;;;5060702;28;20027;-71
2022/11/20 08:33:04;;;;;;;54.15;48.38;;;;;;;;;;5076798;28;20038;-71
2022/11/20 08:35:37;;;;;;;46.00;41.33;;;;;;;;;;5078825;28;20138;-71
2022/11/20 08:38:03;;;;;;;42.33;38.15;;;;;;;;;;5078347;28;20027;-71
2022/11/20 08:40:28;;;;;;;42.22;38.13;;;;;;;;;;5077025;28;20362;-73
2022/11/20 08:42:54;;;;;;;44.72;40.22;;;;;;;;;;5077471;28;20027;-71
2022/11/20 08:45:19;;;;;;;46.15;41.45;;;;;;;;;;5078849;28;20020;-71
2022/11/20 08:47:45;;;;;;;54.33;48.05;;;;;;;;;;5079977;28;20186;-72
2022/11/20 08:50:11;;;;;;;82.00;71.68;;;;;;;;;;5080384;28;20401;-72
2022/11/20 08:52:37;;;;;;;71.32;63.55;;;;;;;;;;5077878;28;20099;-72
2022/11/20 08:55:03;;;;;;;65.22;58.10;;;;;;;;;;5078849;28;20118;-72
2022/11/20 08:57:31;;;;;;;62.08;54.75;;;;;;;;;;5076238;28;20074;-71
2022/11/20 08:59:56;;;;;;;124.43;108.28;;;;;;;;;;5076339;28;20036;-72
2022/11/20 09:02:21;;;;;;;131.57;105.78;;;;;;;;;;5075524;28;20050;-72
2022/11/20 09:04:47;;;;;;;115.03;98.68;;;;;;;;;;5078926;28;20089;-72
2022/11/20 09:07:12;;;;;;;124.63;103.00;;;;;;;;;;5079707;28;20077;-72
2022/11/20 09:09:37;;;;;;;119.00;104.05;;;;;;;;;;5080090;28;20035;-71
2022/11/20 09:12:03;;;;;;;102.78;83.80;;;;;;;;;;5075102;28;20425;-71
2022/11/20 09:14:29;;;;;;;80.15;70.75;;;;;;;;;;5078036;28;20405;-72
2022/11/20 09:16:56;;;;;;;91.55;81.75;;;;;;;;;;5079380;28;20099;-72
2022/11/20 09:19:21;;;;;;;80.05;70.45;;;;;;;;;;5075446;28;20054;-72
2022/11/20 09:21:46;;;;;;;37.75;33.75;;;;;;;;;;5078399;28;20027;-71
2022/11/20 09:24:12;;;;;;;58.95;52.55;;;;;;;;;;5074190;28;20102;-71
2022/11/20 09:26:37;;;;;;;81.70;70.05;;;;;;;;;;5073022;28;20032;-71
2022/11/20 09:29:02;;;;;;;76.03;66.25;;;;;;;;;;5068935;28;20451;-71
2022/11/20 09:31:28;;;;;;;120.90;103.85;;;;;;;;;;5069395;28;20066;-71
2022/11/20 09:33:53;;;;;;;88.13;71.00;;;;;;;;;;5070852;28;20019;-71
2022/11/20 09:36:19;;;;;;;213.75;145.00;;;;;;;;;;5077868;28;20085;-72
2022/11/20 09:38:47;;;;;;;124.20;95.55;;;;;;;;;;5078255;28;20052;-71
2022/11/20 09:41:18;;;;;;;57.17;48.47;;;;;;;;;;5076937;28;20469;-72
2022/11/20 09:43:44;;;;;;;21.70;18.70;;;;;;;;;;5075125;28;20024;-71
2022/11/20 09:46:12;;;;;;;47.25;42.35;;;;;;;;;;5071663;28;20329;-71
2022/11/20 09:48:56;;;;;;;54.10;48.22;;;;;;;;;;5078413;28;20419;-71
2022/11/20 09:51:42;;;;;;;49.15;41.35;;;;;;;;;;5077821;28;20020;-72
2022/11/20 09:54:18;;;;;;;50.65;38.25;;;;;;;;;;5059706;28;20036;-72
2022/11/20 09:56:49;;;;;;;70.10;62.58;;;;;;;;;;5077806;28;20024;-71
2022/11/20 09:59:27;;;;;;;81.93;73.15;;;;;;;;;;5079557;28;20523;-71
2022/11/20 10:01:53;;;;;;;92.00;70.35;;;;;;;;;;5079153;28;20048;-72
2022/11/20 10:04:20;;;;;;;65.82;48.42;;;;;;;;;;5078037;28;20412;-71
2022/11/20 10:06:56;;;;;;;73.82;61.90;;;;;;;;;;5077311;28;20479;-71
2022/11/20 10:09:28;;;;;;;50.53;45.30;;;;;;;;;;5077453;28;20404;-72
2022/11/20 10:11:56;;;;;;;79.53;69.75;;;;;;;;;;5077928;28;20389;-72
2022/11/20 10:14:40;;;;;;;90.20;78.55;;;;;;;;;;5079670;28;20347;-71
2022/11/20 10:17:38;;;;;;;91.25;80.18;;;;;;;;;;5076350;28;20032;-71
2022/11/20 10:20:06;;;;;;;77.88;69.40;;;;;;;;;;5048775;28;20063;-72
2022/11/20 10:22:35;;;;;;;91.32;79.78;;;;;;;;;;5073802;28;20032;-70
2022/11/20 10:25:03;;;;;;;81.57;73.07;;;;;;;;;;5076166;28;20032;-72
2022/11/20 10:27:39;;;;;;;140.80;115.13;;;;;;;;;;5076329;28;20028;-71
2022/11/20 10:30:08;;;;;;;50.72;43.60;;;;;;;;;;5073971;28;20047;-70
2022/11/20 10:32:38;;;;;;;37.05;33.13;;;;;;;;;;5071435;28;20036;-73
2022/11/20 10:35:04;;;;;;;42.42;37.85;;;;;;;;;;5077655;28;20436;-72
2022/11/20 10:37:30;;;;;;;39.55;31.02;;;;;;;;;;5079147;28;20032;-71
2022/11/20 10:39:58;;;;;;;91.65;75.97;;;;;;;;;;5077975;28;20459;-71
2022/11/20 10:42:29;;;;;;;40.75;34.22;;;;;;;;;;5075687;28;20023;-72
2022/11/20 10:45:02;;;;;;;30.40;27.40;;;;;;;;;;5072365;28;20024;-71
2022/11/20 10:47:28;;;;;;;162.45;137.20;;;;;;;;;;5076357;28;20024;-70
2022/11/20 10:49:55;;;;;;;127.75;109.47;;;;;;;;;;5078656;28;20020;-71
2022/11/20 10:52:20;;;;;;;75.70;67.68;;;;;;;;;;5072854;28;20047;-70
2022/11/20 10:54:52;;;;;;;58.47;52.42;;;;;;;;;;5079590;28;20090;-72
2022/11/20 10:57:24;;;;;;;33.63;29.40;;;;;;;;;;5080960;28;20032;-72
2022/11/20 11:00:01;;;;;;;110.43;72.60;;;;;;;;;;5081158;28;20103;-71
2022/11/20 11:02:33;;;;;;;269.42;209.25;;;;;;;;;;5081062;28;20027;-71
2022/11/20 11:05:00;;;;;;;190.98;149.68;;;;;;;;;;5082704;28;20054;-71
2022/11/20 11:07:45;;;;;;;114.95;92.45;;;;;;;;;;5078495;28;20116;-71
2022/11/20 11:10:18;;;;;;;51.88;39.47;;;;;;;;;;5082577;28;20085;-71
2022/11/20 11:12:44;;;;;;;199.20;128.38;;;;;;;;;;5081856;28;20074;-72
2022/11/20 11:15:12;;;;;;;53.22;43.03;;;;;;;;;;5081250;28;20036;-71
2022/11/20 11:17:45;;;;;;;43.58;34.67;;;;;;;;;;5081885;28;20044;-71
2022/11/20 11:20:11;;;;;;;56.85;50.55;;;;;;;;;;5078363;28;20050;-70
2022/11/20 11:22:48;;;;;;;33.40;29.83;;;;;;;;;;5077985;28;20436;-71
2022/11/20 11:25:20;;;;;;;54.35;44.17;;;;;;;;;;5083272;28;20027;-71
2022/11/20 11:27:49;;;;;;;166.60;129.82;;;;;;;;;;5078521;28;20518;-71
2022/11/20 11:30:15;;;;;;;102.47;82.68;;;;;;;;;;5080264;28;20085;-71
2022/11/20 11:32:41;;;;;;;115.05;99.38;;;;;;;;;;5081549;28;20443;-72
2022/11/20 11:35:18;;;;;;;180.48;142.60;;;;;;;;;;5078280;28;20032;-71
2022/11/20 11:37:45;;;;;;;123.65;100.70;;;;;;;;;;5080827;28;20167;-71
2022/11/20 11:40:11;;;;;;;117.22;96.85;;;;;;;;;;5080250;28;20109;-72
2022/11/20 11:42:41;;;;;;;78.47;65.82;;;;;;;;;;5081765;28;20034;-72
2022/11/20 11:45:07;;;;;;;70.55;57.13;;;;;;;;;;5081341;28;20431;-71
2022/11/20 11:47:42;;;;;;;71.75;63.65;;;;;;;;;;5082009;28;20032;-70
2022/11/20 11:50:21;;;;;;;90.05;66.20;;;;;;;;;;5080280;28;20042;-71
2022/11/20 11:53:01;;;;;;;73.45;57.60;;;;;;;;;;5080836;28;20028;-70
2022/11/20 11:55:33;;;;;;;52.13;46.38;;;;;;;;;;5079668;28;20039;-72
2022/11/20 11:58:16;;;;;;;76.18;68.78;;;;;;;;;;5080874;28;20027;-70
2022/11/20 12:00:47;;;;;;;61.47;55.08;;;;;;;;;;5078557;28;20423;-71
2022/11/20 12:03:19;;;;;;;93.28;83.72;;;;;;;;;;5079094;28;20024;-71
2022/11/20 12:05:49;;;;;;;65.70;58.95;;;;;;;;;;5081597;28;20035;-71
2022/11/20 12:08:17;;;;;;;63.33;56.50;;;;;;;;;;5079410;28;20098;-71
2022/11/20 12:10:48;;;;;;;87.13;76.97;;;;;;;;;;5080335;28;20034;-72
2022/11/20 12:13:13;;;;;;;129.35;103.28;;;;;;;;;;5079091;28;20023;-71
2022/11/20 12:15:43;;;;;;;117.88;93.70;;;;;;;;;;5080242;28;20017;-72
2022/11/20 12:18:14;;;;;;;65.00;57.72;;;;;;;;;;5081651;28;20048;-72
2022/11/20 12:20:44;;;;;;;93.10;83.28;;;;;;;;;;5079401;28;20375;-71
2022/11/20 12:23:25;;;;;;;99.45;89.35;;;;;;;;;;5079390;28;20058;-72
2022/11/20 12:25:53;;;;;;;108.95;97.97;;;;;;;;;;5080537;28;20035;-72
2022/11/20 12:28:18;;;;;;;93.32;84.00;;;;;;;;;;5079476;28;20016;-72
2022/11/20 12:30:52;;;;;;;63.45;56.80;;;;;;;;;;5077730;28;20428;-72
2022/11/20 12:33:20;;;;;;;153.90;129.27;;;;;;;;;;5061801;28;20382;-71
2022/11/20 12:35:57;;;;;;;177.65;148.55;;;;;;;;;;5080407;28;20024;-71
2022/11/20 12:38:22;;;;;;;88.93;79.45;;;;;;;;;;5080658;28;20393;-71
2022/11/20 12:40:59;;;;;;;67.90;57.88;;;;;;;;;;5078814;28;20032;-71
2022/11/20 12:46:16;;;;;;;115.13;96.93;;;;;;;;;;5079575;28;20450;-72
2022/11/20 12:48:52;;;;;;;109.93;94.57;;;;;;;;;;5078657;28;20038;-72
2022/11/20 12:51:41;;;;;;;138.82;124.05;;;;;;;;;;5078033;28;20047;-72
2022/11/20 12:54:25;;;;;;;145.02;113.90;;;;;;;;;;5078052;28;20032;-71
2022/11/20 12:56:56;;;;;;;74.90;64.47;;;;;;;;;;5076045;28;20028;-70
2022/11/20 12:59:40;;;;;;;47.25;40.42;;;;;;;;;;5078747;28;20105;-71
2022/11/20 13:02:21;;;;;;;63.00;54.53;;;;;;;;;;5077687;28;20081;-73
2022/11/20 13:05:06;;;;;;;60.80;54.50;;;;;;;;;;5079486;28;20117;-71
2022/11/20 13:07:32;;;;;;;62.97;55.05;;;;;;;;;;5059750;28;20695;-71
2022/11/20 13:09:58;;;;;;;47.95;42.85;;;;;;;;;;5078133;28;20020;-72
2022/11/20 13:12:29;;;;;;;59.55;53.22;;;;;;;;;;5079792;28;20343;-71
2022/11/20 13:14:57;;;;;;;65.97;59.33;;;;;;;;;;5079746;28;20099;-71
2022/11/20 13:17:22;;;;;;;63.92;57.10;;;;;;;;;;5078393;28;20368;-72
2022/11/20 13:19:51;;;;;;;62.10;56.08;;;;;;;;;;5073711;28;20051;-71
2022/11/20 13:22:23;;;;;;;129.82;115.97;;;;;;;;;;5080669;28;20324;-72
2022/11/20 13:24:52;;;;;;;62.70;56.05;;;;;;;;;;5078299;28;20101;-72
2022/11/20 13:27:20;;;;;;;40.38;35.58;;;;;;;;;;5077050;28;20464;-72
2022/11/20 13:29:59;;;;;;;66.72;58.38;;;;;;;;;;5078790;28;20119;-71
2022/11/20 13:32:24;;;;;;;86.18;65.35;;;;;;;;;;5079052;28;20035;-72
2022/11/20 13:34:53;;;;;;;44.13;36.47;;;;;;;;;;5078098;28;20032;-72
2022/11/20 13:37:37;;;;;;;193.73;131.05;;;;;;;;;;5079007;28;20020;-72
2022/11/20 13:40:10;;;;;;;210.93;168.70;;;;;;;;;;5077231;28;20060;-72
2022/11/20 13:42:37;;;;;;;127.70;100.80;;;;;;;;;;5078141;28;21063;-72
2022/11/20 13:45:08;;;;;;;128.02;98.50;;;;;;;;;;5076339;28;20024;-71
2022/11/20 13:47:35;;;;;;;157.43;119.25;;;;;;;;;;5079669;28;20043;-72
2022/11/20 13:50:02;;;;;;;109.05;91.60;;;;;;;;;;5077838;28;20055;-72
2022/11/20 13:52:30;;;;;;;160.70;130.07;;;;;;;;;;5078248;28;20130;-71
2022/11/20 13:54:59;;;;;;;91.70;81.78;;;;;;;;;;5077533;28;20028;-71
2022/11/20 13:57:33;;;;;;;90.97;74.47;;;;;;;;;;5077936;28;20032;-72
2022/11/20 14:00:04;;;;;;;67.88;60.83;;;;;;;;;;5075399;28;20043;-71
2022/11/20 14:02:30;;;;;;;71.47;59.53;;;;;;;;;;5076294;28;20412;-71
2022/11/20 14:04:57;;;;;;;121.45;98.43;;;;;;;;;;5076527;28;20028;-71
2022/11/20 14:07:25;;;;;;;95.32;85.05;;;;;;;;;;5075693;28;20039;-70
2022/11/20 14:09:54;;;;;;;102.95;91.10;;;;;;;;;;5078538;28;20498;-71
2022/11/20 14:12:27;;;;;;;145.98;114.63;;;;;;;;;;5079220;28;20032;-72
2022/11/20 14:14:54;;;;;;;103.90;84.22;;;;;;;;;;5075582;28;20034;-72
2022/11/20 14:17:20;;;;;;;117.78;101.95;;;;;;;;;;5075776;28;20107;-72
2022/11/20 14:19:46;;;;;;;103.57;89.65;;;;;;;;;;5075060;28;20175;-72
2022/11/20 14:22:25;;;;;;;120.10;105.35;;;;;;;;;;5077954;28;20032;-72
2022/11/20 14:25:06;;;;;;;138.57;123.65;;;;;;;;;;5083095;28;20028;-71
2022/11/20 14:27:39;;;;;;;147.57;131.52;;;;;;;;;;5081877;28;20099;-71
2022/11/20 14:30:05;;;;;;;181.02;161.60;;;;;;;;;;5081019;28;20028;-71